KDUA/DUA METAR and TAF weather

Enter ICAO airport designator
Station Type Date Time Source
KDUA METAR 2019/02/20 23:35 UTC NOAA

KDUA 202335Z AUTO 00000KT 10SM CLR 11/M01 A2995 RMK AO2


Station Type Date Time Source
KDUA Decoded METAR 2019/02/20 23:35 UTC NOAA

Durant, Eaker Field Airport, OK, United States (KDUA) 33-56-32N 096-23-40W
Feb 20, 2019 - 06:35 PM EST / 2019.02.20 2335 UTC
Wind: Calm:0
Visibility: 10 mile(s):0
Sky conditions: clear
Temperature: 51 F (11 C)
Dew Point: 30 F (-1 C)
Relative Humidity: 43%
Pressure (altimeter): 29.95 in. Hg (1014 hPa)
ob: KDUA 202335Z AUTO 00000KT 10SM CLR 11/M01 A2995 RMK AO2
cycle: 23

Station Type Date Time Source
KDUA TAF UTC NOAA

Error!


Example: see airport list